Terminal Aerodrome Forecast
Issued by NWS

Home | Current Version | Previous Version | Text Only | Print | Product List | Glossary On
Versions: 1 2 3 4 5 6 7 8 9 10 11 12 13 14 15 16 17 18 19 20
000
FTUS44 KSJT 270200 AAA
TAFBBD
TAF AMD
KBBD 270246Z 2703/2724 03010KT P6SM BKN060
     FM271400 07010KT 4SM -SN BR OVC015
     FM272000 08009KT 6SM -FZDZSN OVC010=

USA.gov is the U.S. government's official web portal to all federal, state and local government web resources and services.